createdAt,value
2018-06-08T00:00:50.876Z,16.00
2018-06-08T00:01:53.679Z,15.75
2018-06-08T00:02:56.493Z,17.25
2018-06-08T00:03:59.312Z,15.00
2018-06-08T00:05:02.348Z,15.75
2018-06-08T00:06:05.415Z,14.50
2018-06-08T00:07:08.215Z,14.00
2018-06-08T00:08:11.896Z,16.50
2018-06-08T00:09:14.662Z,16.00
2018-06-08T00:10:19.151Z,19.25
2018-06-08T00:11:22.619Z,16.25
2018-06-08T00:12:25.832Z,15.00
2018-06-08T00:13:29.490Z,15.00
2018-06-08T00:14:32.306Z,15.25
2018-06-08T00:15:41.372Z,14.50
2018-06-08T00:16:44.150Z,14.00
2018-06-08T00:17:47.912Z,14.50
2018-06-08T00:18:51.035Z,15.50
2018-06-08T00:19:53.852Z,14.50
2018-06-08T00:20:57.565Z,15.00
2018-06-08T00:22:01.201Z,15.25
2018-06-08T00:23:04.598Z,15.75
2018-06-08T00:24:08.585Z,16.50
2018-06-08T00:25:12.946Z,13.50
2018-06-08T00:26:16.463Z,15.50
2018-06-08T00:27:20.014Z,14.50
2018-06-08T00:28:22.851Z,14.75
2018-06-08T00:29:26.672Z,14.75
2018-06-08T00:30:32.199Z,12.50
2018-06-08T00:31:36.393Z,15.25
2018-06-08T00:32:40.607Z,15.00
2018-06-08T00:33:43.379Z,15.25
2018-06-08T00:34:46.779Z,17.25
2018-06-08T00:35:49.576Z,15.75
2018-06-08T00:36:52.366Z,16.00
2018-06-08T00:37:55.417Z,16.25
2018-06-08T00:38:58.333Z,16.50
2018-06-08T00:40:01.380Z,16.00
2018-06-08T00:41:04.481Z,15.00
2018-06-08T00:42:08.433Z,17.25
2018-06-08T00:43:11.220Z,15.50
2018-06-08T00:44:16.014Z,16.00
2018-06-08T00:45:18.881Z,15.25
2018-06-08T00:46:21.974Z,15.75
2018-06-08T00:47:25.585Z,16.00
2018-06-08T00:48:29.134Z,15.75
2018-06-08T00:49:31.916Z,14.50
2018-06-08T00:50:35.038Z,15.50
2018-06-08T00:51:37.856Z,13.50
2018-06-08T00:52:40.663Z,16.00
2018-06-08T00:53:43.471Z,15.25
2018-06-08T00:54:46.575Z,14.75
2018-06-08T00:55:49.396Z,14.25
2018-06-08T00:56:52.470Z,14.50
2018-06-08T00:57:55.743Z,14.00
2018-06-08T00:58:58.543Z,14.50
2018-06-08T01:00:02.347Z,14.00
2018-06-08T01:01:05.140Z,14.75
2018-06-08T01:02:07.948Z,17.50
2018-06-08T01:03:12.082Z,16.00
2018-06-08T01:04:14.899Z,14.75
2018-06-08T01:05:17.677Z,15.00
2018-06-08T01:06:20.513Z,14.25
2018-06-08T01:07:23.320Z,13.50
2018-06-08T01:08:26.096Z,12.00
2018-06-08T01:09:29.575Z,14.75
2018-06-08T01:10:32.393Z,15.00
2018-06-08T01:11:35.168Z,13.50
2018-06-08T01:12:38.011Z,14.00
2018-06-08T01:13:40.922Z,14.75
2018-06-08T01:14:43.994Z,14.50
2018-06-08T01:15:47.439Z,14.25
2018-06-08T01:16:50.541Z,14.50
2018-06-08T01:17:53.558Z,16.50
2018-06-08T01:18:56.762Z,16.00
2018-06-08T01:19:59.618Z,14.50
2018-06-08T01:21:02.439Z,12.00
2018-06-08T01:22:06.060Z,17.25
2018-06-08T01:23:08.884Z,14.75
2018-06-08T01:24:11.692Z,15.00
2018-06-08T01:25:14.479Z,15.75
2018-06-08T01:26:17.288Z,14.25
2018-06-08T01:27:20.116Z,13.50
2018-06-08T01:28:23.532Z,14.25
2018-06-08T01:29:26.520Z,14.00
2018-06-08T01:30:29.328Z,14.75
2018-06-08T01:31:32.267Z,14.75
2018-06-08T01:32:35.059Z,14.25
2018-06-08T01:33:38.046Z,14.75
2018-06-08T01:34:41.230Z,15.25
2018-06-08T01:35:44.053Z,14.50
2018-06-08T01:36:47.181Z,15.00
2018-06-08T01:37:49.998Z,15.00
2018-06-08T01:38:52.804Z,15.00
2018-06-08T01:39:55.601Z,17.50
2018-06-08T01:40:58.653Z,17.00
2018-06-08T01:42:01.467Z,16.00
2018-06-08T01:43:04.247Z,14.25
2018-06-08T01:44:06.994Z,14.50
2018-06-08T01:45:09.793Z,16.50
2018-06-08T01:46:12.552Z,15.25
2018-06-08T01:47:15.623Z,15.50
2018-06-08T01:48:18.438Z,18.75
2018-06-08T01:49:21.218Z,14.25
2018-06-08T01:50:23.999Z,13.00
2018-06-08T01:51:26.818Z,15.75
2018-06-08T01:52:29.597Z,19.00
2018-06-08T01:53:33.281Z,17.75
2018-06-08T01:54:36.078Z,15.75
2018-06-08T01:55:38.837Z,16.00
2018-06-08T01:56:41.638Z,16.00
2018-06-08T01:57:44.457Z,18.25
2018-06-08T01:58:47.222Z,15.00
2018-06-08T01:59:50.303Z,15.25
2018-06-08T02:00:53.213Z,14.25
2018-06-08T02:01:57.658Z,15.00
2018-06-08T02:03:00.449Z,15.50
2018-06-08T02:04:03.225Z,14.50
2018-06-08T02:05:06.053Z,15.25
2018-06-08T02:06:09.128Z,16.00
2018-06-08T02:07:11.918Z,14.75
2018-06-08T02:08:14.696Z,15.50
2018-06-08T02:09:17.490Z,15.25
2018-06-08T02:10:20.308Z,14.25
2018-06-08T02:11:23.148Z,15.00
2018-06-08T02:12:26.260Z,16.00
2018-06-08T02:13:29.031Z,15.75
2018-06-08T02:14:31.857Z,14.75
2018-06-08T02:15:34.643Z,15.00
2018-06-08T02:16:37.417Z,15.50
2018-06-08T02:17:40.216Z,16.00
2018-06-08T02:18:43.443Z,16.00
2018-06-08T02:19:46.230Z,16.50
2018-06-08T02:20:49.008Z,15.00
2018-06-08T02:21:51.840Z,15.25
2018-06-08T02:22:54.844Z,15.75
2018-06-08T02:23:58.116Z,15.50
2018-06-08T02:25:01.193Z,16.00
2018-06-08T02:26:03.987Z,19.00
2018-06-08T02:27:06.771Z,17.00
2018-06-08T02:28:10.114Z,18.00
2018-06-08T02:29:12.902Z,16.50
2018-06-08T02:30:15.687Z,18.00
2018-06-08T02:31:18.805Z,15.50
2018-06-08T02:32:21.579Z,15.50
2018-06-08T02:33:24.387Z,14.00
2018-06-08T02:34:27.166Z,15.00
2018-06-08T02:35:29.966Z,15.25
2018-06-08T02:36:32.729Z,14.00
2018-06-08T02:37:36.623Z,14.75
2018-06-08T02:38:39.408Z,13.25
2018-06-08T02:39:42.225Z,15.75
2018-06-08T02:40:44.997Z,14.75
2018-06-08T02:41:47.787Z,14.00
2018-06-08T02:42:50.589Z,16.50
2018-06-08T02:43:53.360Z,15.50
2018-06-08T02:44:56.162Z,15.50
2018-06-08T02:45:58.963Z,15.50
2018-06-08T02:47:01.746Z,15.00
2018-06-08T02:48:04.534Z,14.25
2018-06-08T02:49:07.292Z,15.00
2018-06-08T02:50:10.400Z,13.75
2018-06-08T02:51:13.191Z,14.75
2018-06-08T02:52:15.986Z,16.75
2018-06-08T02:53:18.787Z,13.25
2018-06-08T02:54:21.572Z,14.50
2018-06-08T02:55:24.373Z,16.75
2018-06-08T02:56:27.478Z,14.75
2018-06-08T02:57:30.252Z,13.00
2018-06-08T02:58:33.068Z,15.00
2018-06-08T02:59:35.821Z,14.00
2018-06-08T03:00:38.638Z,16.75
2018-06-08T03:01:41.573Z,15.00
2018-06-08T03:02:44.659Z,16.75
2018-06-08T03:03:47.467Z,14.75
2018-06-08T03:04:50.229Z,14.00
2018-06-08T03:05:53.052Z,14.75
2018-06-08T03:06:55.824Z,14.50
2018-06-08T03:07:58.632Z,15.00
2018-06-08T03:09:01.718Z,15.50
2018-06-08T03:10:04.529Z,15.00
2018-06-08T03:11:07.322Z,14.00
2018-06-08T03:12:10.179Z,16.25
2018-06-08T03:13:12.983Z,16.50
2018-06-08T03:14:15.787Z,16.25
2018-06-08T03:15:18.866Z,18.25
2018-06-08T03:16:21.641Z,16.00
2018-06-08T03:17:24.444Z,20.75
2018-06-08T03:18:27.254Z,25.00
2018-06-08T03:19:30.018Z,18.75
2018-06-08T03:20:32.794Z,17.75
2018-06-08T03:21:35.887Z,20.75
2018-06-08T03:22:38.647Z,21.75
2018-06-08T03:23:41.482Z,18.75
2018-06-08T03:24:44.301Z,19.50
2018-06-08T03:25:48.331Z,19.50
2018-06-08T03:26:51.165Z,19.75
2018-06-08T03:27:54.232Z,22.00
2018-06-08T03:28:57.063Z,21.50
2018-06-08T03:30:00.248Z,22.00
2018-06-08T03:31:03.343Z,21.00
2018-06-08T03:32:06.505Z,20.00
2018-06-08T03:33:09.809Z,18.00
2018-06-08T03:34:13.798Z,19.00
2018-06-08T03:35:17.153Z,18.75
2018-06-08T03:36:20.350Z,18.75
2018-06-08T03:37:23.158Z,17.50
2018-06-08T03:38:25.940Z,21.25
2018-06-08T03:39:28.779Z,17.75
2018-06-08T03:40:31.910Z,19.50
2018-06-08T03:41:34.682Z,19.00
2018-06-08T03:42:39.098Z,21.00
2018-06-08T03:43:42.642Z,17.75
2018-06-08T03:44:45.787Z,19.00
2018-06-08T03:45:50.092Z,18.00
2018-06-08T03:46:53.192Z,20.75
2018-06-08T03:47:55.988Z,17.50
2018-06-08T03:48:59.580Z,21.00
2018-06-08T03:50:02.367Z,17.00
2018-06-08T03:51:05.125Z,14.75
2018-06-08T03:52:07.906Z,16.75
2018-06-08T03:53:11.100Z,16.75
2018-06-08T03:54:13.919Z,18.00
2018-06-08T03:55:16.714Z,14.50
2018-06-08T03:56:19.510Z,16.75
2018-06-08T03:57:22.335Z,16.25
2018-06-08T03:58:25.541Z,15.00
2018-06-08T03:59:28.933Z,15.00
2018-06-08T04:00:31.746Z,15.25
2018-06-08T04:01:34.552Z,14.75
2018-06-08T04:02:37.322Z,18.00
2018-06-08T04:03:40.100Z,18.75
2018-06-08T04:04:42.905Z,20.50
2018-06-08T04:05:46.021Z,18.00
2018-06-08T04:06:48.805Z,15.75
2018-06-08T04:07:51.626Z,17.50
2018-06-08T04:08:54.422Z,16.00
2018-06-08T04:09:58.410Z,16.75
2018-06-08T04:11:01.234Z,15.75
2018-06-08T04:12:05.542Z,16.00
2018-06-08T04:13:10.166Z,18.00
2018-06-08T04:14:13.149Z,16.25
2018-06-08T04:15:16.097Z,15.50
2018-06-08T04:16:19.191Z,16.75
2018-06-08T04:17:21.990Z,16.25
2018-06-08T04:18:24.819Z,15.50
2018-06-08T04:19:27.602Z,14.00
2018-06-08T04:20:30.415Z,16.00
2018-06-08T04:21:33.204Z,15.00
2018-06-08T04:22:36.017Z,17.75
2018-06-08T04:23:38.818Z,17.75
2018-06-08T04:24:43.349Z,14.50
2018-06-08T04:25:47.871Z,15.75
2018-06-08T04:26:50.706Z,14.75
2018-06-08T04:27:53.511Z,16.25
2018-06-08T04:28:56.291Z,16.00
2018-06-08T04:29:59.063Z,18.75
2018-06-08T04:31:02.168Z,15.00
2018-06-08T04:32:04.989Z,17.50
2018-06-08T04:33:07.787Z,14.75
2018-06-08T04:34:10.605Z,15.00
2018-06-08T04:35:13.362Z,13.25
2018-06-08T04:36:17.273Z,14.25
2018-06-08T04:37:20.329Z,13.25
2018-06-08T04:38:23.089Z,16.75
2018-06-08T04:39:25.869Z,16.75
2018-06-08T04:40:29.256Z,18.00
2018-06-08T04:41:32.043Z,17.25
2018-06-08T04:42:34.830Z,14.75
2018-06-08T04:43:37.986Z,15.75
2018-06-08T04:44:40.823Z,16.75
2018-06-08T04:45:43.611Z,20.75
2018-06-08T04:46:46.506Z,17.00
2018-06-08T04:47:49.389Z,18.00
2018-06-08T04:48:52.194Z,17.75
2018-06-08T04:49:55.284Z,18.25
2018-06-08T04:50:58.104Z,17.00
2018-06-08T04:52:00.968Z,14.25
2018-06-08T04:53:03.850Z,17.25
2018-06-08T04:54:06.649Z,18.00
2018-06-08T04:55:09.556Z,15.00
2018-06-08T04:56:12.650Z,19.00
2018-06-08T04:57:16.104Z,16.25
2018-06-08T04:58:18.930Z,18.00
2018-06-08T04:59:21.764Z,16.75
2018-06-08T05:00:24.569Z,15.25
2018-06-08T05:01:30.608Z,15.75
2018-06-08T05:02:33.852Z,18.50
2018-06-08T05:03:36.674Z,15.50
2018-06-08T05:04:39.489Z,16.75
2018-06-08T05:05:42.627Z,18.25
2018-06-08T05:06:45.579Z,17.00
2018-06-08T05:07:49.364Z,18.50
2018-06-08T05:08:52.479Z,18.00
2018-06-08T05:09:55.576Z,15.50
2018-06-08T05:10:58.395Z,18.75
2018-06-08T05:12:01.232Z,20.00
2018-06-08T05:13:04.183Z,19.25
2018-06-08T05:14:07.006Z,16.75
2018-06-08T05:15:10.439Z,17.50
2018-06-08T05:16:13.246Z,18.50
2018-06-08T05:17:17.052Z,20.00
2018-06-08T05:18:22.071Z,17.75
2018-06-08T05:19:24.898Z,18.50
2018-06-08T05:20:28.456Z,14.50
2018-06-08T05:21:31.666Z,17.50
2018-06-08T05:22:34.532Z,18.00
2018-06-08T05:23:38.218Z,19.00
2018-06-08T05:24:41.047Z,18.50
2018-06-08T05:25:43.879Z,18.25
2018-06-08T05:26:46.653Z,19.50
2018-06-08T05:27:53.049Z,18.00
2018-06-08T05:28:55.936Z,17.50
2018-06-08T05:29:58.755Z,21.00
2018-06-08T05:31:01.574Z,20.25
2018-06-08T05:32:05.137Z,18.00
2018-06-08T05:33:08.939Z,19.75
2018-06-08T05:34:12.944Z,20.75
2018-06-08T05:35:15.753Z,16.00
2018-06-08T05:36:18.615Z,17.75
2018-06-08T05:37:21.477Z,20.25
2018-06-08T05:38:24.494Z,16.25
2018-06-08T05:39:27.280Z,19.25
2018-06-08T05:40:30.594Z,21.00
2018-06-08T05:41:33.471Z,22.25
2018-06-08T05:42:36.360Z,22.25
2018-06-08T05:43:39.195Z,20.75
2018-06-08T05:44:41.979Z,19.75
2018-06-08T05:45:44.774Z,20.25
2018-06-08T05:46:47.998Z,21.00
2018-06-08T05:47:50.867Z,19.50
2018-06-08T05:48:53.652Z,20.75
2018-06-08T05:49:56.511Z,20.00
2018-06-08T05:50:59.302Z,21.00
2018-06-08T05:52:02.157Z,21.50
2018-06-08T05:53:04.942Z,21.00
2018-06-08T05:54:07.723Z,21.75
2018-06-08T05:55:11.247Z,20.50
2018-06-08T05:56:14.063Z,24.75
2018-06-08T05:57:17.530Z,20.25
2018-06-08T05:58:20.313Z,22.50
2018-06-08T05:59:23.439Z,24.00
2018-06-08T06:00:26.240Z,26.75
2018-06-08T06:01:30.025Z,24.00
2018-06-08T06:02:32.803Z,24.25
2018-06-08T06:03:44.180Z,21.00
2018-06-08T06:04:47.675Z,22.50
2018-06-08T06:05:51.785Z,21.75
2018-06-08T06:06:55.585Z,22.00
2018-06-08T06:07:58.366Z,24.00
2018-06-08T06:09:01.257Z,20.75
2018-06-08T06:10:04.442Z,21.00
2018-06-08T06:11:08.215Z,25.00
2018-06-08T06:12:13.370Z,21.25
2018-06-08T06:13:16.168Z,23.75
2018-06-08T06:14:19.669Z,20.75
2018-06-08T06:15:22.595Z,23.50
2018-06-08T06:16:25.432Z,21.75
2018-06-08T06:17:30.708Z,23.75
2018-06-08T06:18:35.007Z,21.00
2018-06-08T06:19:38.009Z,22.00
2018-06-08T06:20:40.930Z,26.00
2018-06-08T06:21:44.617Z,23.25
2018-06-08T06:22:47.409Z,27.75
2018-06-08T06:23:50.330Z,25.75
2018-06-08T06:24:53.433Z,25.75
2018-06-08T06:25:56.245Z,24.75
2018-06-08T06:26:59.025Z,23.00
2018-06-08T06:28:01.844Z,20.75
2018-06-08T06:29:05.257Z,21.50
2018-06-08T06:30:08.918Z,25.50
2018-06-08T06:31:12.223Z,22.25
2018-06-08T06:32:16.677Z,23.75
2018-06-08T06:33:20.063Z,23.00
2018-06-08T06:34:22.931Z,27.00
2018-06-08T06:35:25.759Z,24.75
2018-06-08T06:36:29.279Z,20.00
2018-06-08T06:37:32.521Z,25.75
2018-06-08T06:38:35.476Z,25.00
2018-06-08T06:39:38.865Z,22.75
2018-06-08T06:40:41.729Z,23.25
2018-06-08T06:41:45.539Z,24.75
2018-06-08T06:42:48.395Z,22.25
2018-06-08T06:43:51.571Z,21.50
2018-06-08T06:44:54.486Z,22.25
2018-06-08T06:45:57.307Z,25.00
2018-06-08T06:47:00.125Z,22.75
2018-06-08T06:48:04.134Z,21.00
2018-06-08T06:49:07.606Z,21.75
2018-06-08T06:50:10.942Z,23.50
2018-06-08T06:51:14.422Z,21.75
2018-06-08T06:52:19.487Z,23.75
2018-06-08T06:53:23.295Z,21.25
2018-06-08T06:55:32.499Z,23.50
2018-06-08T06:56:35.584Z,23.50
2018-06-08T06:57:39.305Z,25.50
2018-06-08T06:58:42.152Z,22.25
2018-06-08T06:59:44.999Z,26.00
2018-06-08T07:00:48.388Z,25.00
2018-06-08T07:01:52.319Z,26.25
2018-06-08T07:02:56.148Z,25.75
2018-06-08T07:04:00.231Z,30.00
2018-06-08T07:05:03.418Z,25.25
2018-06-08T07:06:06.253Z,27.75
2018-06-08T07:07:09.081Z,25.75
2018-06-08T07:08:11.889Z,29.00
2018-06-08T07:09:15.341Z,30.00
2018-06-08T07:10:18.765Z,30.25
2018-06-08T07:11:22.197Z,28.75
2018-06-08T07:12:25.432Z,29.50
2018-06-08T07:13:28.413Z,32.50
2018-06-08T07:14:35.648Z,27.00
2018-06-08T07:15:38.451Z,25.25
2018-06-08T07:16:41.332Z,24.25
2018-06-08T07:17:45.420Z,24.75
2018-06-08T07:18:50.368Z,18.50
2018-06-08T07:19:53.638Z,22.25
2018-06-08T07:20:57.302Z,24.75
2018-06-08T07:22:00.611Z,22.00
2018-06-08T07:23:03.415Z,20.00
2018-06-08T07:24:06.417Z,23.25
2018-06-08T07:25:09.991Z,23.00
2018-06-08T07:26:14.110Z,21.00
2018-06-08T07:27:17.775Z,18.00
2018-06-08T07:28:20.605Z,18.75
2018-06-08T07:29:23.483Z,18.50
2018-06-08T07:30:26.342Z,18.00
2018-06-08T07:31:29.196Z,17.00
2018-06-08T07:32:32.360Z,18.00
2018-06-08T07:33:35.173Z,17.75
2018-06-08T07:34:39.167Z,18.50
2018-06-08T07:35:42.821Z,16.25
2018-06-08T07:36:46.421Z,20.75
2018-06-08T07:37:49.257Z,18.00
2018-06-08T07:38:52.480Z,19.25
2018-06-08T07:39:55.343Z,20.75
2018-06-08T07:40:58.296Z,21.00
2018-06-08T07:42:01.807Z,20.50
2018-06-08T07:43:04.629Z,19.00
2018-06-08T07:44:07.541Z,16.50
2018-06-08T07:45:10.349Z,16.50
2018-06-08T07:46:15.127Z,18.50
2018-06-08T07:47:18.064Z,15.75
2018-06-08T07:48:20.899Z,17.75
2018-06-08T07:49:23.743Z,15.75
2018-06-08T07:50:26.943Z,16.00
2018-06-08T07:51:29.823Z,17.00
2018-06-08T07:52:32.644Z,18.25
2018-06-08T07:53:35.464Z,19.25
2018-06-08T07:55:52.449Z,19.25
2018-06-08T07:56:55.600Z,19.00
2018-06-08T07:57:58.495Z,17.75
2018-06-08T07:59:06.019Z,18.50
2018-06-08T08:00:08.909Z,19.25
2018-06-08T08:01:11.981Z,18.75
2018-06-08T08:02:16.381Z,19.75
2018-06-08T08:03:20.234Z,20.00
2018-06-08T08:04:25.172Z,19.75
2018-06-08T08:05:28.521Z,19.75
2018-06-08T08:06:32.981Z,22.00
2018-06-08T08:07:36.618Z,23.75
2018-06-08T08:08:39.951Z,21.75
2018-06-08T08:09:43.845Z,17.25
2018-06-08T08:10:46.771Z,23.00
2018-06-08T08:11:50.011Z,20.75
2018-06-08T08:12:53.908Z,22.75
2018-06-08T08:13:56.757Z,19.75
2018-06-08T08:15:00.965Z,23.00
2018-06-08T08:16:03.801Z,20.25
2018-06-08T08:17:06.727Z,23.25
2018-06-08T08:18:11.180Z,21.75
2018-06-08T08:19:18.540Z,22.50
2018-06-08T08:20:25.878Z,22.25
2018-06-08T08:21:29.178Z,19.25
2018-06-08T08:22:33.693Z,22.75
2018-06-08T08:23:37.853Z,22.25
2018-06-08T08:24:41.560Z,19.50
2018-06-08T08:25:49.285Z,18.75
2018-06-08T08:26:52.485Z,18.00
2018-06-08T08:27:55.665Z,17.25
2018-06-08T08:29:06.447Z,19.25
2018-06-08T08:30:13.374Z,18.00
2018-06-08T08:31:17.043Z,18.25
2018-06-08T08:32:20.392Z,17.50
2018-06-08T08:33:25.483Z,18.00
2018-06-08T08:34:30.408Z,19.75
2018-06-08T08:35:35.298Z,22.00
2018-06-08T08:36:38.329Z,22.00
2018-06-08T08:37:41.153Z,22.25
2018-06-08T08:38:58.466Z,22.00
2018-06-08T08:40:02.994Z,24.75
2018-06-08T08:41:07.217Z,22.00
2018-06-08T08:42:10.106Z,21.25
2018-06-08T08:43:14.681Z,23.75
2018-06-08T08:44:17.554Z,21.00
2018-06-08T08:45:20.498Z,19.75
2018-06-08T08:46:25.340Z,22.25
2018-06-08T08:47:28.671Z,22.00
2018-06-08T08:48:31.542Z,21.00
2018-06-08T08:49:34.371Z,21.00
2018-06-08T08:50:37.682Z,20.50
2018-06-08T08:51:40.589Z,19.00
2018-06-08T08:52:47.565Z,19.00
2018-06-08T08:53:52.704Z,18.00
2018-06-08T08:54:55.502Z,21.00
2018-06-08T08:55:58.816Z,23.25
2018-06-08T08:57:02.482Z,19.50
2018-06-08T08:58:05.361Z,20.50
